createdAt,value
2022-11-17T00:00:43.667Z,6.21
2022-11-17T00:03:15.359Z,6.26
2022-11-17T00:05:45.071Z,6.16
2022-11-17T00:08:13.627Z,6.23
2022-11-17T00:10:41.895Z,6.20
2022-11-17T00:13:29.424Z,6.25
2022-11-17T00:15:57.600Z,6.21
2022-11-17T00:18:44.550Z,6.22
2022-11-17T00:21:19.575Z,6.30
2022-11-17T00:23:48.456Z,6.33
2022-11-17T00:26:19.610Z,6.21
2022-11-17T00:28:52.206Z,6.20
2022-11-17T00:31:39.708Z,6.19
2022-11-17T00:34:11.240Z,6.20
2022-11-17T00:36:45.622Z,6.20
2022-11-17T00:39:15.294Z,6.17
2022-11-17T00:41:50.026Z,6.13
2022-11-17T00:44:20.138Z,6.14
2022-11-17T00:46:56.012Z,6.17
2022-11-17T00:49:27.431Z,6.08
2022-11-17T00:51:56.111Z,6.20
2022-11-17T00:54:24.791Z,6.21
2022-11-17T00:56:53.082Z,6.27
2022-11-17T00:59:21.666Z,6.27
2022-11-17T01:01:49.847Z,6.17
2022-11-17T01:04:18.205Z,6.16
2022-11-17T01:06:48.541Z,6.13
2022-11-17T01:09:22.306Z,6.15
2022-11-17T01:11:52.516Z,6.17
2022-11-17T01:14:27.305Z,6.17
2022-11-17T01:17:01.209Z,6.18
2022-11-17T01:19:29.898Z,6.20
2022-11-17T01:21:57.972Z,6.22
2022-11-17T01:24:26.071Z,6.20
2022-11-17T01:26:54.105Z,6.18
2022-11-17T01:29:22.272Z,6.20
2022-11-17T01:31:52.388Z,6.20
2022-11-17T01:34:20.452Z,6.20
2022-11-17T01:37:07.359Z,6.19
2022-11-17T01:39:35.410Z,6.26
2022-11-17T01:42:12.021Z,6.22
2022-11-17T01:44:57.205Z,6.19
2022-11-17T01:47:44.313Z,6.19
2022-11-17T01:50:39.398Z,6.19
2022-11-17T01:53:13.329Z,6.19
2022-11-17T01:55:47.252Z,6.17
2022-11-17T01:58:21.382Z,6.18
2022-11-17T02:00:49.635Z,6.18
2022-11-17T02:03:18.245Z,6.17
2022-11-17T02:06:00.830Z,6.15
2022-11-17T02:08:32.082Z,6.11
2022-11-17T02:11:02.942Z,6.16
2022-11-17T02:13:32.049Z,6.18
2022-11-17T02:16:01.240Z,6.15
2022-11-17T02:18:29.380Z,6.12
2022-11-17T02:21:00.995Z,6.13
2022-11-17T02:23:47.842Z,6.10
2022-11-17T02:26:37.616Z,6.19
2022-11-17T02:29:24.235Z,6.22
2022-11-17T02:32:07.819Z,6.12
2022-11-17T02:34:46.077Z,6.15
2022-11-17T02:37:21.623Z,6.22
2022-11-17T02:40:03.358Z,6.25
2022-11-17T02:42:59.235Z,6.29
2022-11-17T02:45:42.353Z,6.34
2022-11-17T02:48:19.867Z,6.37
2022-11-17T02:50:49.865Z,6.41
2022-11-17T02:53:19.072Z,6.43
2022-11-17T02:55:52.244Z,6.43
2022-11-17T02:58:21.779Z,6.43
2022-11-17T03:01:22.181Z,6.44
2022-11-17T03:03:53.158Z,6.47
2022-11-17T03:06:27.301Z,6.51
2022-11-17T03:09:13.384Z,6.53
2022-11-17T03:12:00.116Z,6.55
2022-11-17T03:14:39.734Z,6.59
2022-11-17T03:17:19.326Z,6.66
2022-11-17T03:19:53.543Z,6.60
2022-11-17T03:22:33.297Z,6.59
2022-11-17T03:25:05.363Z,6.57
2022-11-17T03:27:40.967Z,6.59
2022-11-17T03:30:10.553Z,6.57
2022-11-17T03:32:46.989Z,6.61
2022-11-17T03:35:20.581Z,6.67
2022-11-17T03:37:53.988Z,6.68
2022-11-17T03:40:26.567Z,6.69
2022-11-17T03:42:59.131Z,6.68
2022-11-17T03:45:35.912Z,6.65
2022-11-17T03:48:11.563Z,6.64
2022-11-17T03:51:07.386Z,6.62
2022-11-17T03:53:36.755Z,6.63
2022-11-17T03:56:23.007Z,6.64
2022-11-17T03:58:58.216Z,6.63
2022-11-17T04:01:29.086Z,6.64
2022-11-17T04:03:57.280Z,6.63
2022-11-17T04:06:25.470Z,6.64
2022-11-17T04:08:53.694Z,6.66
2022-11-17T04:11:40.338Z,6.65
2022-11-17T04:14:28.220Z,6.66
2022-11-17T04:16:56.352Z,6.64
2022-11-17T04:19:24.525Z,6.63
2022-11-17T04:21:52.596Z,6.63
2022-11-17T04:24:20.877Z,6.61
2022-11-17T04:27:07.885Z,6.59
2022-11-17T04:29:36.054Z,6.59
2022-11-17T04:32:04.958Z,6.56
2022-11-17T04:34:33.230Z,6.56
2022-11-17T04:37:06.929Z,6.53
2022-11-17T04:39:39.103Z,6.50
2022-11-17T04:42:07.596Z,6.46
2022-11-17T04:44:35.972Z,6.46
2022-11-17T04:47:04.552Z,6.44
2022-11-17T04:49:33.640Z,6.42
2022-11-17T04:52:02.128Z,6.41
2022-11-17T04:54:30.629Z,6.41
2022-11-17T04:56:59.097Z,6.42
2022-11-17T04:59:27.468Z,6.40
2022-11-17T05:01:57.023Z,6.40
2022-11-17T05:04:45.933Z,6.39
2022-11-17T05:07:14.424Z,6.37
2022-11-17T05:09:42.985Z,6.37
2022-11-17T05:12:30.116Z,6.39
2022-11-17T05:14:58.516Z,6.39
2022-11-17T05:17:26.729Z,6.39
2022-11-17T05:19:56.593Z,6.39
2022-11-17T05:22:44.307Z,6.37
2022-11-17T05:25:13.414Z,6.38
2022-11-17T05:27:41.755Z,6.40
2022-11-17T05:30:10.888Z,6.39
2022-11-17T05:32:39.069Z,6.39
2022-11-17T05:35:07.700Z,6.40
2022-11-17T05:37:36.903Z,6.41
2022-11-17T05:40:06.325Z,6.41
2022-11-17T05:42:36.049Z,6.42
2022-11-17T05:45:04.976Z,6.42
2022-11-17T05:47:33.457Z,6.40
2022-11-17T05:50:01.703Z,6.38
2022-11-17T05:52:30.190Z,6.36
2022-11-17T05:54:58.352Z,6.36
2022-11-17T05:57:32.088Z,6.36
2022-11-17T06:00:04.793Z,6.38
2022-11-17T06:02:47.341Z,6.38
2022-11-17T06:05:20.219Z,6.38
2022-11-17T06:07:49.101Z,6.36
2022-11-17T06:10:18.198Z,6.37
2022-11-17T06:12:46.687Z,6.38
2022-11-17T06:15:15.175Z,6.38
2022-11-17T06:18:11.271Z,6.39
2022-11-17T06:20:45.197Z,6.40
2022-11-17T06:23:15.628Z,6.38
2022-11-17T06:25:44.828Z,6.37
2022-11-17T06:28:17.547Z,6.35
2022-11-17T06:30:49.738Z,6.35
2022-11-17T06:33:21.688Z,6.33
2022-11-17T06:35:50.348Z,6.27
2022-11-17T06:38:18.537Z,6.31
2022-11-17T06:40:46.933Z,6.33
2022-11-17T06:43:15.398Z,6.33
2022-11-17T06:45:46.306Z,6.33
2022-11-17T06:48:16.974Z,6.35
2022-11-17T06:50:48.209Z,6.38
2022-11-17T06:53:16.570Z,6.32
2022-11-17T06:55:51.504Z,6.37
2022-11-17T06:58:19.833Z,6.37
2022-11-17T07:00:48.923Z,6.35
2022-11-17T07:03:17.465Z,6.35
2022-11-17T07:05:46.785Z,6.28
2022-11-17T07:08:15.965Z,6.34
2022-11-17T07:10:49.339Z,6.35
2022-11-17T07:13:22.829Z,6.35
2022-11-17T07:15:52.556Z,6.37
2022-11-17T07:18:21.836Z,6.38
2022-11-17T07:20:50.333Z,6.39
2022-11-17T07:23:18.813Z,6.40
2022-11-17T07:25:47.502Z,6.41
2022-11-17T07:28:16.186Z,6.42
2022-11-17T07:30:44.759Z,6.43
2022-11-17T07:33:14.362Z,6.45
2022-11-17T07:35:43.054Z,6.45
2022-11-17T07:38:11.470Z,6.34
2022-11-17T07:40:40.830Z,6.48
2022-11-17T07:43:09.676Z,6.48
2022-11-17T07:45:40.138Z,6.48
2022-11-17T07:48:08.943Z,6.49
2022-11-17T07:50:40.224Z,6.51
2022-11-17T07:53:10.614Z,6.53
2022-11-17T07:55:41.056Z,6.56
2022-11-17T07:58:10.558Z,6.60
2022-11-17T08:00:40.237Z,6.63
2022-11-17T08:03:10.241Z,6.54
2022-11-17T08:05:43.794Z,6.69
2022-11-17T08:08:14.016Z,6.69
2022-11-17T08:10:43.312Z,6.70
2022-11-17T08:13:14.684Z,6.71
2022-11-17T08:15:43.435Z,6.73
2022-11-17T08:18:12.553Z,6.72
2022-11-17T08:20:41.221Z,6.71
2022-11-17T08:23:09.587Z,6.72
2022-11-17T08:25:38.581Z,6.72
2022-11-17T08:28:07.654Z,6.72
2022-11-17T08:30:36.675Z,6.73
2022-11-17T08:33:06.093Z,6.72
2022-11-17T08:35:37.727Z,6.71
2022-11-17T08:38:07.149Z,6.67
2022-11-17T08:40:35.616Z,6.65
2022-11-17T08:43:05.330Z,6.64
2022-11-17T08:45:39.156Z,6.54
2022-11-17T08:48:08.406Z,6.64
2022-11-17T08:51:12.938Z,6.64
2022-11-17T08:54:35.319Z,6.65
2022-11-17T09:00:25.806Z,6.64
2022-11-17T09:04:03.421Z,6.68
2022-11-17T09:06:38.238Z,6.69
2022-11-17T09:09:07.894Z,6.71
2022-11-17T09:11:36.619Z,6.72
2022-11-17T09:14:08.071Z,6.71
2022-11-17T09:16:37.842Z,6.73
2022-11-17T09:19:07.023Z,6.73
2022-11-17T09:21:35.632Z,6.74
2022-11-17T09:24:04.503Z,6.72
2022-11-17T09:26:41.177Z,6.73
2022-11-17T09:29:09.944Z,6.76
2022-11-17T09:31:38.735Z,6.78
2022-11-17T09:34:08.257Z,6.79
2022-11-17T09:36:37.419Z,6.80
2022-11-17T09:39:06.084Z,6.79
2022-11-17T09:41:39.208Z,6.79
2022-11-17T09:44:43.319Z,6.79
2022-11-17T09:47:30.555Z,6.79
2022-11-17T09:50:22.618Z,6.78
2022-11-17T09:52:58.100Z,6.79
2022-11-17T09:55:45.795Z,6.81
2022-11-17T09:58:34.132Z,6.77
2022-11-17T10:01:03.262Z,6.79
2022-11-17T10:03:44.921Z,6.78
2022-11-17T10:06:20.351Z,6.79
2022-11-17T10:09:25.343Z,6.79
2022-11-17T10:12:08.339Z,6.78
2022-11-17T10:14:40.280Z,6.78
2022-11-17T10:17:12.438Z,6.79
2022-11-17T10:19:44.063Z,6.83
2022-11-17T10:22:20.362Z,6.83
2022-11-17T10:24:55.055Z,6.87
2022-11-17T10:27:24.986Z,6.91
2022-11-17T10:30:07.520Z,6.94
2022-11-17T10:32:48.371Z,6.98
2022-11-17T10:35:19.705Z,7.02
2022-11-17T10:38:09.765Z,7.05
2022-11-17T10:40:42.798Z,7.07
2022-11-17T10:43:14.526Z,7.10
2022-11-17T10:46:07.869Z,7.12
2022-11-17T10:48:38.934Z,7.16
2022-11-17T10:51:24.506Z,7.16
2022-11-17T10:54:19.287Z,7.16
2022-11-17T10:56:54.789Z,7.21
2022-11-17T10:59:42.761Z,7.22
2022-11-17T11:02:39.537Z,7.22
2022-11-17T11:05:28.248Z,7.23
2022-11-17T11:08:22.799Z,7.20
2022-11-17T11:11:53.053Z,7.15
2022-11-17T11:14:30.686Z,7.08
2022-11-17T11:16:59.744Z,7.02
2022-11-17T11:19:29.868Z,7.00
2022-11-17T11:22:21.600Z,6.93
2022-11-17T11:25:14.654Z,6.88
2022-11-17T11:27:58.740Z,6.85
2022-11-17T11:30:27.675Z,6.84
2022-11-17T11:33:24.199Z,6.83
2022-11-17T11:36:04.923Z,6.82
2022-11-17T11:38:53.123Z,6.84
2022-11-17T11:41:48.377Z,6.85
2022-11-17T11:44:41.522Z,6.84
2022-11-17T11:47:43.323Z,6.85
2022-11-17T11:50:33.156Z,6.90
2022-11-17T11:53:17.266Z,6.92
2022-11-17T11:55:49.896Z,6.92
2022-11-17T11:58:23.769Z,6.92
2022-11-17T12:01:03.657Z,6.89
2022-11-17T12:03:36.714Z,6.88
2022-11-17T12:06:30.501Z,6.88
2022-11-17T12:09:24.253Z,6.88
2022-11-17T12:12:03.599Z,6.86
2022-11-17T12:14:35.578Z,6.84
2022-11-17T12:17:13.569Z,6.78
2022-11-17T12:19:45.249Z,6.74
2022-11-17T12:22:29.843Z,6.71
2022-11-17T12:25:08.007Z,6.65
2022-11-17T12:32:02.191Z,6.64
2022-11-17T12:34:37.550Z,6.64
2022-11-17T12:37:20.532Z,6.63
2022-11-17T12:40:11.703Z,6.61
2022-11-17T12:43:16.017Z,6.59
2022-11-17T12:45:54.370Z,6.54
2022-11-17T12:48:36.814Z,6.53
2022-11-17T12:51:15.795Z,6.52
2022-11-17T12:54:17.989Z,6.50
2022-11-17T12:57:20.411Z,6.48
2022-11-17T13:00:14.088Z,6.46
2022-11-17T13:02:54.855Z,6.46
2022-11-17T13:05:26.479Z,6.43
2022-11-17T13:08:14.503Z,6.41
2022-11-17T13:10:42.897Z,6.36
2022-11-17T13:13:22.509Z,6.31
2022-11-17T13:15:58.941Z,6.27
2022-11-17T13:18:40.545Z,6.23
2022-11-17T13:21:26.960Z,6.20
2022-11-17T13:23:57.167Z,6.17
2022-11-17T13:26:38.418Z,6.17
2022-11-17T13:29:10.557Z,6.15
2022-11-17T13:31:39.350Z,6.16
2022-11-17T13:34:07.857Z,6.10
2022-11-17T13:36:45.963Z,6.12
2022-11-17T13:39:24.260Z,6.10
2022-11-17T13:42:24.683Z,6.08
2022-11-17T13:44:56.498Z,6.06
2022-11-17T13:47:48.637Z,6.04
2022-11-17T13:50:34.152Z,6.03
2022-11-17T13:53:11.093Z,6.02
2022-11-17T13:55:48.257Z,6.03
2022-11-17T13:58:31.710Z,6.02
2022-11-17T14:01:02.095Z,6.01
2022-11-17T14:03:34.208Z,6.00
2022-11-17T14:06:09.209Z,5.99
2022-11-17T14:08:43.993Z,6.01
2022-11-17T14:11:21.682Z,6.00
2022-11-17T14:14:01.831Z,6.01
2022-11-17T14:16:44.003Z,6.04
2022-11-17T14:19:18.786Z,6.04
2022-11-17T14:22:09.694Z,6.04
2022-11-17T14:24:41.757Z,6.06
2022-11-17T14:27:35.030Z,6.05
2022-11-17T14:30:10.426Z,6.05
2022-11-17T14:32:52.435Z,6.03
2022-11-17T14:35:54.326Z,6.00
2022-11-17T14:38:23.803Z,6.00
2022-11-17T14:40:54.104Z,6.01
2022-11-17T14:43:23.379Z,6.00
2022-11-17T14:45:52.040Z,6.01
2022-11-17T14:48:27.167Z,6.02
2022-11-17T14:50:58.624Z,6.04
2022-11-17T14:53:31.486Z,6.06
2022-11-17T14:56:08.552Z,6.06
2022-11-17T14:58:39.115Z,5.99
2022-11-17T15:01:16.499Z,5.99
2022-11-17T15:03:45.786Z,5.99
2022-11-17T15:06:19.390Z,5.98
2022-11-17T15:09:02.146Z,5.91
2022-11-17T15:11:39.606Z,5.93
2022-11-17T15:14:11.660Z,5.93
2022-11-17T15:16:40.723Z,5.91
2022-11-17T15:19:09.502Z,5.90
2022-11-17T15:21:38.813Z,5.85
2022-11-17T15:24:09.621Z,5.88
2022-11-17T15:26:41.893Z,5.93
2022-11-17T15:29:18.335Z,5.94
2022-11-17T15:31:47.867Z,5.92
2022-11-17T15:34:20.640Z,5.93
2022-11-17T15:36:51.305Z,5.93
2022-11-17T15:39:21.753Z,5.91
2022-11-17T15:41:51.856Z,5.91
2022-11-17T15:44:22.304Z,5.88
2022-11-17T15:46:51.835Z,5.88
2022-11-17T15:49:20.625Z,5.88
2022-11-17T15:51:49.540Z,5.88
2022-11-17T15:54:20.738Z,5.87
2022-11-17T15:56:51.235Z,5.86
2022-11-17T15:59:20.569Z,5.87
2022-11-17T16:01:50.520Z,5.87
2022-11-17T16:04:20.994Z,5.87
2022-11-17T16:06:50.610Z,5.87
2022-11-17T16:09:21.521Z,5.87
2022-11-17T16:11:54.398Z,5.78
2022-11-17T16:14:24.748Z,5.66
2022-11-17T16:16:54.484Z,5.72
2022-11-17T16:19:24.033Z,5.78
2022-11-17T16:21:52.992Z,5.77
2022-11-17T16:24:22.347Z,5.76
2022-11-17T16:26:51.574Z,5.75
2022-11-17T16:29:22.283Z,5.61
2022-11-17T16:31:51.734Z,5.60
2022-11-17T16:34:24.781Z,5.67
2022-11-17T16:36:54.630Z,5.60
2022-11-17T16:39:24.267Z,5.53
2022-11-17T16:41:54.776Z,5.49
2022-11-17T16:44:24.373Z,5.51
2022-11-17T16:46:53.923Z,5.48
2022-11-17T16:49:23.798Z,5.53
2022-11-17T16:51:57.036Z,5.59
2022-11-17T16:54:25.781Z,5.54
2022-11-17T16:56:55.253Z,5.54
2022-11-17T16:59:24.849Z,5.51
2022-11-17T17:01:53.362Z,5.50
2022-11-17T17:04:21.799Z,5.47
2022-11-17T17:06:50.601Z,5.44
2022-11-17T17:09:24.869Z,5.44
2022-11-17T17:11:57.925Z,5.43
2022-11-17T17:14:26.955Z,5.43
2022-11-17T17:16:56.755Z,5.42
2022-11-17T17:19:28.863Z,5.42
2022-11-17T17:21:58.435Z,5.42
2022-11-17T17:24:31.007Z,5.40
2022-11-17T17:27:00.212Z,5.39
2022-11-17T17:29:28.757Z,5.37
2022-11-17T17:31:57.177Z,5.35
2022-11-17T17:34:25.878Z,5.35
2022-11-17T17:36:54.931Z,5.34
2022-11-17T17:39:23.901Z,5.34
2022-11-17T17:41:52.559Z,5.32
2022-11-17T17:44:21.325Z,5.32
2022-11-17T17:46:50.254Z,5.33
2022-11-17T17:49:19.716Z,5.33
2022-11-17T17:51:49.158Z,5.34
2022-11-17T17:54:20.705Z,5.33
2022-11-17T17:56:50.255Z,5.33
2022-11-17T17:59:19.675Z,5.27
2022-11-17T18:01:50.638Z,5.33
2022-11-17T18:04:20.092Z,5.32
2022-11-17T18:06:49.328Z,5.32
2022-11-17T18:09:21.540Z,5.31
2022-11-17T18:11:54.668Z,5.31
2022-11-17T18:14:26.413Z,5.28
2022-11-17T18:16:55.358Z,5.25
2022-11-17T18:19:28.422Z,5.23
2022-11-17T18:22:01.817Z,5.20
2022-11-17T18:24:30.696Z,5.18
2022-11-17T18:26:59.685Z,5.15
2022-11-17T18:29:29.609Z,5.12
2022-11-17T18:31:59.745Z,4.98
2022-11-17T18:34:29.785Z,4.99
2022-11-17T18:37:00.678Z,5.06
2022-11-17T18:39:32.041Z,5.07
2022-11-17T18:42:02.234Z,5.07
2022-11-17T18:44:33.656Z,5.07
2022-11-17T18:47:03.505Z,5.05
2022-11-17T18:49:34.734Z,5.03
2022-11-17T18:52:04.902Z,5.03
2022-11-17T18:54:34.973Z,5.05
2022-11-17T18:57:04.113Z,5.05
2022-11-17T18:59:32.953Z,5.05
2022-11-17T19:02:01.753Z,4.92
2022-11-17T19:04:31.704Z,4.85
2022-11-17T19:07:01.669Z,4.88
2022-11-17T19:09:32.151Z,4.89
2022-11-17T19:12:02.635Z,4.97
2022-11-17T19:14:33.851Z,5.01
2022-11-17T19:17:04.139Z,5.01
2022-11-17T19:19:35.385Z,5.01
2022-11-17T19:22:08.782Z,5.01
2022-11-17T19:24:41.217Z,5.02
2022-11-17T19:27:10.918Z,5.03
2022-11-17T19:29:41.680Z,5.03
2022-11-17T19:32:11.252Z,5.04
2022-11-17T19:34:42.232Z,5.05
2022-11-17T19:37:11.327Z,5.04
2022-11-17T19:39:40.099Z,5.04
2022-11-17T19:42:08.966Z,4.99
2022-11-17T19:44:37.619Z,4.82
2022-11-17T19:47:06.682Z,4.77
2022-11-17T19:49:35.601Z,4.78
2022-11-17T19:52:05.214Z,4.81
2022-11-17T19:54:33.838Z,4.82
2022-11-17T19:57:02.974Z,4.82
2022-11-17T19:59:33.331Z,4.84
2022-11-17T20:02:02.919Z,4.85
2022-11-17T20:04:33.336Z,4.86
2022-11-17T20:07:03.234Z,4.85
2022-11-17T20:09:32.521Z,4.85
2022-11-17T20:12:02.051Z,4.82
2022-11-17T20:14:33.881Z,4.81
2022-11-17T20:17:03.692Z,4.81
2022-11-17T20:19:34.148Z,4.78
2022-11-17T20:22:03.772Z,4.77
2022-11-17T20:24:32.699Z,4.75
2022-11-17T20:27:01.854Z,4.73
2022-11-17T20:29:31.682Z,4.73
2022-11-17T20:32:01.426Z,4.74
2022-11-17T20:34:32.523Z,4.75
2022-11-17T20:37:02.978Z,4.76
2022-11-17T20:39:32.043Z,4.77
2022-11-17T20:42:01.930Z,4.76
2022-11-17T20:44:32.051Z,4.75
2022-11-17T20:47:01.086Z,4.75
2022-11-17T20:49:30.611Z,4.74
2022-11-17T20:51:59.666Z,4.73
2022-11-17T20:54:29.073Z,4.73
2022-11-17T20:56:58.232Z,4.74
2022-11-17T20:59:28.146Z,4.74
2022-11-17T21:01:57.354Z,4.73
2022-11-17T21:04:27.261Z,4.72
2022-11-17T21:06:57.468Z,4.71
2022-11-17T21:09:26.726Z,4.70
2022-11-17T21:11:56.789Z,4.70
2022-11-17T21:14:27.811Z,4.59
2022-11-17T21:16:58.200Z,4.62
2022-11-17T21:19:27.985Z,4.66
2022-11-17T21:21:57.492Z,4.68
2022-11-17T21:24:28.210Z,4.69
2022-11-17T21:26:58.196Z,4.69
2022-11-17T21:29:27.443Z,4.69
2022-11-17T21:31:56.399Z,4.69
2022-11-17T21:34:25.390Z,4.71
2022-11-17T21:36:54.596Z,4.70
2022-11-17T21:39:23.408Z,4.71
2022-11-17T21:41:52.680Z,4.73
2022-11-17T21:44:21.686Z,4.79
2022-11-17T21:46:50.579Z,4.92
2022-11-17T21:49:19.859Z,4.96
2022-11-17T21:51:49.988Z,4.97
2022-11-17T21:54:20.138Z,4.97
2022-11-17T21:56:55.793Z,4.97
2022-11-17T21:59:24.651Z,4.97
2022-11-17T22:01:56.140Z,4.96
2022-11-17T22:04:29.176Z,4.96
2022-11-17T22:07:00.815Z,4.94
2022-11-17T22:09:33.088Z,4.94
2022-11-17T22:12:11.282Z,4.93
2022-11-17T22:14:47.304Z,4.93
2022-11-17T22:17:18.156Z,4.92
2022-11-17T22:19:50.050Z,4.82
2022-11-17T22:22:22.298Z,4.65
2022-11-17T22:24:53.286Z,4.61
2022-11-17T22:27:26.446Z,4.59
2022-11-17T22:29:54.839Z,4.60
2022-11-17T22:32:23.209Z,4.64
2022-11-17T22:34:51.496Z,4.64
2022-11-17T22:37:19.774Z,4.66
2022-11-17T22:39:48.107Z,4.69
2022-11-17T22:42:18.811Z,4.82
2022-11-17T22:44:47.140Z,4.76
2022-11-17T22:47:16.552Z,4.80
2022-11-17T22:49:44.896Z,4.72
2022-11-17T22:52:13.371Z,4.72
2022-11-17T22:54:41.790Z,4.75
2022-11-17T22:57:09.902Z,4.79
2022-11-17T22:59:38.256Z,4.81
2022-11-17T23:02:07.205Z,4.82
2022-11-17T23:04:36.773Z,4.83
2022-11-17T23:07:04.938Z,4.88
2022-11-17T23:09:33.289Z,4.90
2022-11-17T23:12:01.604Z,4.90
2022-11-17T23:14:29.921Z,4.90
2022-11-17T23:16:58.309Z,4.91
2022-11-17T23:19:26.498Z,4.92
2022-11-17T23:21:54.825Z,4.92
2022-11-17T23:24:23.039Z,4.91
2022-11-17T23:26:51.450Z,4.90
2022-11-17T23:29:19.858Z,4.90
2022-11-17T23:31:48.140Z,4.89
2022-11-17T23:34:16.918Z,4.90
2022-11-17T23:36:45.260Z,4.90
2022-11-17T23:39:13.503Z,4.89
2022-11-17T23:41:41.735Z,4.88
2022-11-17T23:44:09.968Z,4.86
2022-11-17T23:46:38.230Z,4.86
2022-11-17T23:49:06.492Z,4.86
2022-11-17T23:51:34.964Z,4.87
2022-11-17T23:54:03.533Z,4.87
2022-11-17T23:56:33.766Z,4.89
2022-11-17T23:59:02.197Z,4.88
